Overview Statistics Trail Chart Weather Telemetry Raw packets
 

This is the latest recevied weather packets stored in our database for station/object VY2CRA-4. If no packets are shown the sender has not sent any weather packets the latest 10 day(s).

<< 1 2 3 4 >>
Time Temp. Humidity Pressure Rain* Wind** Luminosity Snow
1788639116 17.22° C 64% 1001.7 hPa 0 mm - - -
1788637915 17.22° C 64% 1001.6 hPa 0 mm - - -
1788635513 17.22° C 65% 1001.2 hPa 0 mm - - -
1788631910 17.22° C 62% 1001.1 hPa 0 mm - - -
1788630709 17.22° C 62% 1001.1 hPa 0 mm - - -
1788628307 17.22° C 60% 1001 hPa 0 mm - - -
1788627107 17.78° C 59% 1000.9 hPa 0 mm - - -
1788625905 18.33° C 58% 1000.9 hPa 0 mm - - -
1788624705 18.33° C 58% 1000.9 hPa 0 mm - - -
1788623504 18.33° C 57% 1000.8 hPa 0 mm - - -
1788622303 18.89° C 56% 1000.9 hPa 0 mm - - -
1788621102 18.89° C 55% 1000.7 hPa 0 mm - - -
1788619901 19.44° C 54% 1000.5 hPa 0 mm - - -
1788617499 20° C 53% 1000.4 hPa 0 mm - - -
1788615097 20.56° C 48% 999.9 hPa 0 mm - - -
1788613896 21.67° C 44% 999.5 hPa 0 mm - - -
1788612696 22.22° C 41% 999.4 hPa 0 mm - - -
1788611494 22.78° C 40% 999.4 hPa 0 mm - - -
1788610293 23.33° C 38% 999 hPa 0 mm - - -
1788609093 23.89° C 40% 998.7 hPa 0 mm - - -
1788607891 21.11° C 49% 998.6 hPa 0 mm - - -
1788606691 18.33° C 58% 998.5 hPa 0 mm - - -
1788605490 17.78° C 58% 998.2 hPa 0 mm - - -
1788604289 17.78° C 59% 998.2 hPa 0 mm - - -
1788603088 17.78° C 60% 998.1 hPa 0 mm - - -

* Rain since midnight (hover to see other rain measurements)
** Current wind speed in m/s (hover to see current wind gust speed)